createdAt,value
2018-04-13T00:01:15.437Z,20.53
2018-04-13T00:03:41.251Z,20.50
2018-04-13T00:06:07.071Z,20.48
2018-04-13T00:08:32.891Z,20.49
2018-04-13T00:10:58.705Z,20.48
2018-04-13T00:13:24.520Z,20.49
2018-04-13T00:15:50.336Z,20.54
2018-04-13T00:18:16.156Z,20.59
2018-04-13T00:20:41.975Z,20.57
2018-04-13T00:23:07.795Z,20.55
2018-04-13T00:25:33.611Z,20.57
2018-04-13T00:27:59.420Z,20.56
2018-04-13T00:30:25.273Z,20.58
2018-04-13T00:32:51.192Z,20.58
2018-04-13T00:35:17.048Z,20.54
2018-04-13T00:37:42.933Z,20.57
2018-04-13T00:40:08.774Z,20.56
2018-04-13T00:42:34.589Z,20.55
2018-04-13T00:45:00.528Z,20.56
2018-04-13T00:47:26.346Z,20.55
2018-04-13T00:49:53.264Z,20.55
2018-04-13T00:52:19.078Z,20.55
2018-04-13T00:54:44.921Z,20.52
2018-04-13T00:57:11.578Z,20.50
2018-04-13T00:59:37.389Z,20.51
2018-04-13T01:02:03.238Z,20.55
2018-04-13T01:04:29.059Z,20.57
2018-04-13T01:06:54.909Z,20.57
2018-04-13T01:09:20.722Z,20.60
2018-04-13T01:11:46.581Z,20.58
2018-04-13T01:14:12.389Z,20.57
2018-04-13T01:16:38.219Z,20.61
2018-04-13T01:19:04.048Z,20.57
2018-04-13T01:21:29.866Z,20.59
2018-04-13T01:23:55.680Z,20.61
2018-04-13T01:26:21.614Z,20.58
2018-04-13T01:28:47.483Z,20.57
2018-04-13T01:31:13.297Z,20.55
2018-04-13T01:33:39.104Z,20.54
2018-04-13T01:36:04.973Z,20.57
2018-04-13T01:38:30.784Z,20.59
2018-04-13T01:40:56.640Z,20.56
2018-04-13T01:43:22.490Z,20.55
2018-04-13T01:45:48.299Z,20.55
2018-04-13T01:48:14.151Z,20.58
2018-04-13T01:50:39.965Z,20.68
2018-04-13T01:53:05.773Z,20.78
2018-04-13T01:55:31.585Z,20.82
2018-04-13T01:57:57.434Z,20.86
2018-04-13T02:00:23.245Z,20.84
2018-04-13T02:02:49.062Z,20.89
2018-04-13T02:05:14.885Z,20.87
2018-04-13T02:07:40.699Z,20.88
2018-04-13T02:10:06.509Z,20.87
2018-04-13T02:12:32.325Z,20.84
2018-04-13T02:14:58.168Z,20.81
2018-04-13T02:17:24.017Z,20.83
2018-04-13T02:19:49.828Z,20.78
2018-04-13T02:22:15.638Z,20.82
2018-04-13T02:24:41.461Z,20.78
2018-04-13T02:27:07.293Z,20.81
2018-04-13T02:29:33.112Z,20.75
2018-04-13T02:31:58.937Z,20.75
2018-04-13T02:34:24.814Z,20.81
2018-04-13T02:36:50.605Z,20.75
2018-04-13T02:39:16.420Z,20.74
2018-04-13T02:41:42.266Z,20.73
2018-04-13T02:44:08.080Z,20.68
2018-04-13T02:46:33.892Z,20.74
2018-04-13T02:48:59.727Z,20.72
2018-04-13T02:51:25.573Z,20.76
2018-04-13T02:53:51.405Z,20.76
2018-04-13T02:56:17.213Z,20.73
2018-04-13T02:58:43.028Z,20.78
2018-04-13T03:01:08.856Z,20.77
2018-04-13T03:03:35.628Z,20.73
2018-04-13T03:06:01.448Z,20.73
2018-04-13T03:08:27.300Z,20.74
2018-04-13T03:10:53.124Z,20.76
2018-04-13T03:13:18.937Z,20.70
2018-04-13T03:15:44.740Z,20.72
2018-04-13T03:18:10.558Z,20.70
2018-04-13T03:20:36.369Z,20.73
2018-04-13T03:23:02.195Z,20.72
2018-04-13T03:25:28.007Z,20.70
2018-04-13T03:27:53.817Z,20.74
2018-04-13T03:30:19.636Z,20.66
2018-04-13T03:32:45.458Z,20.68
2018-04-13T03:35:11.279Z,20.70
2018-04-13T03:37:37.090Z,20.65
2018-04-13T03:40:02.916Z,20.68
2018-04-13T03:42:28.732Z,20.67
2018-04-13T03:44:54.554Z,20.68
2018-04-13T03:47:20.385Z,20.68
2018-04-13T03:49:46.203Z,20.70
2018-04-13T03:52:12.026Z,20.67
2018-04-13T03:54:37.845Z,20.71
2018-04-13T03:57:03.710Z,20.73
2018-04-13T03:59:29.537Z,20.70
2018-04-13T04:01:55.349Z,20.73
2018-04-13T04:04:21.182Z,20.71
2018-04-13T04:06:46.997Z,20.73
2018-04-13T04:09:12.824Z,20.74
2018-04-13T04:11:38.641Z,20.68
2018-04-13T04:14:04.460Z,20.74
2018-04-13T04:16:30.326Z,20.70
2018-04-13T04:18:56.156Z,20.73
2018-04-13T04:21:28.161Z,20.73
2018-04-13T04:24:00.081Z,20.67
2018-04-13T04:26:31.974Z,20.70
2018-04-13T04:28:57.785Z,20.68
2018-04-13T04:31:23.603Z,20.65
2018-04-13T04:33:49.455Z,20.64
2018-04-13T04:36:16.093Z,20.65
2018-04-13T04:38:41.930Z,20.65
2018-04-13T04:41:07.736Z,20.64
2018-04-13T04:43:33.581Z,20.67
2018-04-13T04:45:59.401Z,20.69
2018-04-13T04:48:25.224Z,20.67
2018-04-13T04:50:51.046Z,20.66
2018-04-13T04:53:17.286Z,20.71
2018-04-13T04:55:43.121Z,20.69
2018-04-13T04:58:08.953Z,20.70
2018-04-13T05:00:36.160Z,20.69
2018-04-13T05:03:02.020Z,20.72
2018-04-13T05:05:27.837Z,20.70
2018-04-13T05:07:53.649Z,20.71
2018-04-13T05:10:19.502Z,20.69
2018-04-13T05:12:45.331Z,20.70
2018-04-13T05:15:11.199Z,20.70
2018-04-13T05:17:37.022Z,20.68
2018-04-13T05:20:02.861Z,20.64
2018-04-13T05:22:28.763Z,20.61
2018-04-13T05:24:54.581Z,20.63
2018-04-13T05:27:20.402Z,20.60
2018-04-13T05:29:46.253Z,20.61
2018-04-13T05:32:12.071Z,20.65
2018-04-13T05:34:37.886Z,20.61
2018-04-13T05:37:03.697Z,20.65
2018-04-13T05:39:29.510Z,20.66
2018-04-13T05:41:55.508Z,20.70
2018-04-13T05:44:21.350Z,20.63
2018-04-13T05:46:47.188Z,20.71
2018-04-13T05:49:13.025Z,20.71
2018-04-13T05:51:38.884Z,20.69
2018-04-13T05:54:04.807Z,20.72
2018-04-13T05:56:30.632Z,20.65
2018-04-13T05:58:56.548Z,20.67
2018-04-13T06:01:22.457Z,20.65
2018-04-13T06:03:48.273Z,20.70
2018-04-13T06:06:14.085Z,20.69
2018-04-13T06:08:39.907Z,20.64
2018-04-13T06:11:05.840Z,20.65
2018-04-13T06:13:31.681Z,20.62
2018-04-13T06:15:57.528Z,20.62
2018-04-13T06:18:23.349Z,20.63
2018-04-13T06:20:49.496Z,20.65
2018-04-13T06:23:15.703Z,20.57
2018-04-13T06:25:41.822Z,20.65
2018-04-13T06:28:07.645Z,20.69
2018-04-13T06:30:33.455Z,20.64
2018-04-13T06:32:59.277Z,20.78
2018-04-13T06:35:25.113Z,20.83
2018-04-13T06:37:50.929Z,20.80
2018-04-13T06:40:16.773Z,20.87
2018-04-13T06:42:42.580Z,20.82
2018-04-13T06:45:08.401Z,20.82
2018-04-13T06:47:34.271Z,20.85
2018-04-13T06:50:00.084Z,20.95
2018-04-13T06:52:25.982Z,20.89
2018-04-13T06:54:51.848Z,20.96
2018-04-13T06:57:17.666Z,20.96
2018-04-13T06:59:43.500Z,20.91
2018-04-13T07:02:09.517Z,20.96
2018-04-13T07:04:35.353Z,20.92
2018-04-13T07:07:01.288Z,20.91
2018-04-13T07:09:27.140Z,20.85
2018-04-13T07:11:52.985Z,20.87
2018-04-13T07:14:18.800Z,20.82
2018-04-13T07:16:44.637Z,20.83
2018-04-13T07:19:10.543Z,20.81
2018-04-13T07:21:36.372Z,20.80
2018-04-13T07:24:02.219Z,20.79
2018-04-13T07:26:28.040Z,20.80
2018-04-13T07:28:53.889Z,20.76
2018-04-13T07:31:19.732Z,20.78
2018-04-13T07:33:45.705Z,20.72
2018-04-13T07:36:11.535Z,20.72
2018-04-13T07:38:37.750Z,20.71
2018-04-13T07:41:03.189Z,20.70
2018-04-13T07:43:29.158Z,20.76
2018-04-13T07:45:55.383Z,20.73
2018-04-13T07:48:21.195Z,20.73
2018-04-13T07:50:46.992Z,20.74
2018-04-13T07:53:12.818Z,20.73
2018-04-13T07:55:38.647Z,20.75
2018-04-13T07:58:04.468Z,20.70
2018-04-13T08:00:30.442Z,20.54
2018-04-13T08:02:56.337Z,20.61
2018-04-13T08:05:22.185Z,20.68
2018-04-13T08:07:47.998Z,20.65
2018-04-13T08:10:14.327Z,20.66
2018-04-13T08:12:39.754Z,20.62
2018-04-13T08:15:05.621Z,20.57
2018-04-13T08:17:31.593Z,20.66
2018-04-13T08:19:57.429Z,20.58
2018-04-13T08:22:23.248Z,20.60
2018-04-13T08:24:49.078Z,20.63
2018-04-13T08:27:14.920Z,20.63
2018-04-13T08:29:40.768Z,20.68
2018-04-13T08:32:06.618Z,20.73
2018-04-13T08:34:32.474Z,20.72
2018-04-13T08:36:58.476Z,20.70
2018-04-13T08:39:24.293Z,20.71
2018-04-13T08:41:50.162Z,20.66
2018-04-13T08:44:16.069Z,20.72
2018-04-13T08:46:41.890Z,20.69
2018-04-13T08:49:07.800Z,20.67
2018-04-13T08:51:33.781Z,20.65
2018-04-13T08:53:59.622Z,20.71
2018-04-13T08:56:25.487Z,20.68
2018-04-13T08:58:51.429Z,20.65
2018-04-13T09:01:17.293Z,20.63
2018-04-13T09:03:43.113Z,20.65
2018-04-13T09:06:08.985Z,20.65
2018-04-13T09:08:34.884Z,20.64
2018-04-13T09:11:00.731Z,20.65
2018-04-13T09:13:26.566Z,20.69
2018-04-13T09:15:52.384Z,20.71
2018-04-13T09:18:18.265Z,20.75
2018-04-13T09:20:44.291Z,20.74
2018-04-13T09:23:10.183Z,20.69
2018-04-13T09:25:36.000Z,20.75
2018-04-13T09:28:01.958Z,20.73
2018-04-13T09:30:27.820Z,20.68
2018-04-13T09:32:53.636Z,20.83
2018-04-13T09:35:19.667Z,20.85
2018-04-13T09:37:45.465Z,20.98
2018-04-13T09:40:11.287Z,21.08
2018-04-13T09:42:37.181Z,21.08
2018-04-13T09:45:03.003Z,21.09
2018-04-13T09:47:28.921Z,21.07
2018-04-13T09:49:54.728Z,21.07
2018-04-13T09:52:20.543Z,21.05
2018-04-13T09:54:46.358Z,21.06
2018-04-13T09:57:12.236Z,21.05
2018-04-13T09:59:38.018Z,21.05
2018-04-13T10:02:03.953Z,21.03
2018-04-13T10:04:35.695Z,21.01
2018-04-13T10:07:01.521Z,21.01
2018-04-13T10:09:27.545Z,20.98
2018-04-13T10:11:53.569Z,20.99
2018-04-13T10:14:19.496Z,20.99
2018-04-13T10:16:45.452Z,20.97
2018-04-13T10:19:11.269Z,20.96
2018-04-13T10:21:37.083Z,20.97
2018-04-13T10:24:02.973Z,20.93
2018-04-13T10:26:28.797Z,20.96
2018-04-13T10:28:54.724Z,20.90
2018-04-13T10:31:20.545Z,20.89
2018-04-13T10:33:46.360Z,20.87
2018-04-13T10:36:12.221Z,20.93
2018-04-13T10:38:38.047Z,20.90
2018-04-13T10:41:03.889Z,20.93
2018-04-13T10:43:29.746Z,20.87
2018-04-13T10:45:55.612Z,20.80
2018-04-13T10:48:21.510Z,20.92
2018-04-13T10:50:47.420Z,20.87
2018-04-13T10:53:13.229Z,20.88
2018-04-13T10:55:39.039Z,20.88
2018-04-13T10:58:04.899Z,20.85
2018-04-13T11:00:30.715Z,20.83
2018-04-13T11:02:56.565Z,20.81
2018-04-13T11:05:22.405Z,20.81
2018-04-13T11:07:48.237Z,20.83
2018-04-13T11:10:14.216Z,20.85
2018-04-13T11:12:40.196Z,20.86
2018-04-13T11:15:08.877Z,20.85
2018-04-13T11:17:34.692Z,20.80
2018-04-13T11:20:01.681Z,20.80
2018-04-13T11:22:27.581Z,20.82
2018-04-13T11:24:53.436Z,20.77
2018-04-13T11:27:19.312Z,20.78
2018-04-13T11:29:45.151Z,20.77
2018-04-13T11:32:10.965Z,20.77
2018-04-13T11:34:36.788Z,20.80
2018-04-13T11:37:02.608Z,20.76
2018-04-13T11:39:28.449Z,20.67
2018-04-13T11:41:54.297Z,20.75
2018-04-13T11:44:20.108Z,20.74
2018-04-13T11:46:45.945Z,20.76
2018-04-13T11:49:11.762Z,20.77
2018-04-13T11:51:37.589Z,20.78
2018-04-13T11:54:03.405Z,20.72
2018-04-13T11:56:29.272Z,20.75
2018-04-13T11:58:55.121Z,20.72
2018-04-13T12:01:20.949Z,20.75
2018-04-13T12:03:46.781Z,20.73
2018-04-13T12:06:12.649Z,20.73
2018-04-13T12:08:38.472Z,20.76
2018-04-13T12:11:04.287Z,20.79
2018-04-13T12:13:30.221Z,20.72
2018-04-13T12:15:56.038Z,20.71
2018-04-13T12:18:21.853Z,20.75
2018-04-13T12:20:47.681Z,20.67
2018-04-13T12:23:13.526Z,20.73
2018-04-13T12:25:39.361Z,20.71
2018-04-13T12:28:05.273Z,20.74
2018-04-13T12:30:31.243Z,20.71
2018-04-13T12:32:57.057Z,20.71
2018-04-13T12:35:22.870Z,20.74
2018-04-13T12:37:48.696Z,20.70
2018-04-13T12:40:14.513Z,20.72
2018-04-13T12:42:40.333Z,20.70
2018-04-13T12:45:06.181Z,20.67
2018-04-13T12:47:31.993Z,20.67
2018-04-13T12:49:57.811Z,20.70
2018-04-13T12:52:23.653Z,20.68
2018-04-13T12:54:49.696Z,20.68
2018-04-13T12:57:15.397Z,20.69
2018-04-13T12:59:41.252Z,20.71
2018-04-13T13:02:07.065Z,20.70
2018-04-13T13:04:32.873Z,20.67
2018-04-13T13:06:58.845Z,20.65
2018-04-13T13:09:24.664Z,20.74
2018-04-13T13:11:50.485Z,20.68
2018-04-13T13:14:16.423Z,20.63
2018-04-13T13:16:42.256Z,20.68
2018-04-13T13:19:08.081Z,20.66
2018-04-13T13:21:40.908Z,20.66
2018-04-13T13:24:06.859Z,20.63
2018-04-13T13:26:32.693Z,20.65
2018-04-13T13:28:58.542Z,20.64
2018-04-13T13:31:24.357Z,20.62
2018-04-13T13:33:50.166Z,20.60
2018-04-13T13:36:16.039Z,20.60
2018-04-13T13:38:41.894Z,20.57
2018-04-13T13:41:07.718Z,20.57
2018-04-13T13:43:33.557Z,20.55
2018-04-13T13:45:59.389Z,20.52
2018-04-13T13:48:25.242Z,20.53
2018-04-13T13:50:51.612Z,20.53
2018-04-13T13:53:17.474Z,20.57
2018-04-13T13:55:43.289Z,20.56
2018-04-13T13:58:09.097Z,20.56
2018-04-13T14:00:34.968Z,20.58
2018-04-13T14:03:00.784Z,20.59
2018-04-13T14:05:26.601Z,20.58
2018-04-13T14:07:52.537Z,20.67
2018-04-13T14:10:18.373Z,20.60
2018-04-13T14:12:44.274Z,20.62
2018-04-13T14:15:10.093Z,20.59
2018-04-13T14:17:35.950Z,20.67
2018-04-13T14:20:01.774Z,20.67
2018-04-13T14:22:27.592Z,20.63
2018-04-13T14:24:53.601Z,20.68
2018-04-13T14:27:19.413Z,20.65
2018-04-13T14:29:45.233Z,20.65
2018-04-13T14:32:11.137Z,20.62
2018-04-13T14:34:36.969Z,20.63
2018-04-13T14:37:02.777Z,20.61
2018-04-13T14:39:28.588Z,20.63
2018-04-13T14:41:54.533Z,20.63
2018-04-13T14:44:20.379Z,20.56
2018-04-13T14:46:46.197Z,20.56
2018-04-13T14:49:12.089Z,20.56
2018-04-13T14:51:37.908Z,20.61
2018-04-13T14:54:03.769Z,20.60
2018-04-13T14:56:29.589Z,20.66
2018-04-13T14:58:55.484Z,20.61
2018-04-13T15:01:21.297Z,20.64
2018-04-13T15:03:47.109Z,20.57
2018-04-13T15:06:12.929Z,20.59
2018-04-13T15:08:38.746Z,20.61
2018-04-13T15:11:04.669Z,20.64
2018-04-13T15:13:30.481Z,20.62
2018-04-13T15:15:56.295Z,20.65
2018-04-13T15:18:22.144Z,20.66
2018-04-13T15:20:47.973Z,20.62
2018-04-13T15:23:13.797Z,20.61
2018-04-13T15:25:39.646Z,20.63
2018-04-13T15:28:06.537Z,20.61
2018-04-13T15:30:32.388Z,20.67
2018-04-13T15:32:58.210Z,20.62
2018-04-13T15:35:24.113Z,20.61
2018-04-13T15:37:49.932Z,20.55
2018-04-13T15:40:15.829Z,20.61
2018-04-13T15:42:41.629Z,20.56
2018-04-13T15:45:07.501Z,20.61
2018-04-13T15:47:33.341Z,20.59
2018-04-13T15:49:59.156Z,20.62
2018-04-13T15:52:25.037Z,20.61
2018-04-13T15:54:50.901Z,20.60
2018-04-13T15:57:16.745Z,20.60
2018-04-13T15:59:42.593Z,20.56
2018-04-13T16:02:08.530Z,20.58
2018-04-13T16:04:34.385Z,20.56
2018-04-13T16:07:00.216Z,20.58
2018-04-13T16:09:26.025Z,20.55
2018-04-13T16:11:51.845Z,20.57
2018-04-13T16:14:17.677Z,20.54
2018-04-13T16:16:43.496Z,20.57
2018-04-13T16:19:09.363Z,20.57
2018-04-13T16:21:35.292Z,20.58
2018-04-13T16:24:01.105Z,20.59
2018-04-13T16:26:26.924Z,20.54
2018-04-13T16:28:52.747Z,20.55
2018-04-13T16:31:18.557Z,20.52
2018-04-13T16:33:44.372Z,20.53
2018-04-13T16:36:10.193Z,20.54
2018-04-13T16:38:36.016Z,20.55
2018-04-13T16:41:01.838Z,20.51
2018-04-13T16:43:27.705Z,20.54
2018-04-13T16:45:53.541Z,20.52
2018-04-13T16:48:19.357Z,20.52
2018-04-13T16:50:45.176Z,20.51
2018-04-13T16:53:11.009Z,20.48
2018-04-13T16:55:36.854Z,20.50
2018-04-13T16:58:02.696Z,20.45
2018-04-13T17:03:14.551Z,20.46
2018-04-13T17:05:40.375Z,20.46
2018-04-13T17:08:06.227Z,20.48
2018-04-13T17:10:32.114Z,20.47
2018-04-13T17:12:57.947Z,20.47
2018-04-13T17:15:23.783Z,20.46
2018-04-13T17:17:49.620Z,20.44
2018-04-13T17:20:15.446Z,20.46
2018-04-13T17:22:41.266Z,20.49
2018-04-13T17:25:07.086Z,20.40
2018-04-13T17:27:33.024Z,20.46
2018-04-13T17:29:58.845Z,20.45
2018-04-13T17:32:24.669Z,20.49
2018-04-13T17:34:50.504Z,20.43
2018-04-13T17:37:16.360Z,20.36
2018-04-13T17:39:42.177Z,20.45
2018-04-13T17:42:07.999Z,20.49
2018-04-13T17:44:33.839Z,20.51
2018-04-13T17:46:59.712Z,20.50
2018-04-13T17:49:25.521Z,20.54
2018-04-13T17:51:51.459Z,20.49
2018-04-13T17:54:17.302Z,20.51
2018-04-13T17:56:43.129Z,20.50
2018-04-13T17:59:08.961Z,20.52
2018-04-13T18:01:34.778Z,20.50
2018-04-13T18:04:00.605Z,20.55
2018-04-13T18:06:27.273Z,20.49
2018-04-13T18:08:53.111Z,20.52
2018-04-13T18:11:18.993Z,20.61
2018-04-13T18:13:44.827Z,20.57
2018-04-13T18:16:10.674Z,20.59
2018-04-13T18:18:36.486Z,20.62
2018-04-13T18:21:02.367Z,20.61
2018-04-13T18:23:28.192Z,20.63
2018-04-13T18:25:54.018Z,20.62
2018-04-13T18:28:19.838Z,20.64
2018-04-13T18:30:45.667Z,20.62
2018-04-13T18:33:11.594Z,20.63
2018-04-13T18:35:37.465Z,20.61
2018-04-13T18:38:03.290Z,20.61
2018-04-13T18:40:29.152Z,20.60
2018-04-13T18:42:54.985Z,20.59
2018-04-13T18:45:20.830Z,20.62
2018-04-13T18:47:46.704Z,20.64
2018-04-13T18:50:12.596Z,20.62
2018-04-13T18:52:38.435Z,20.65
2018-04-13T18:55:04.254Z,20.48
2018-04-13T18:57:30.174Z,20.69
2018-04-13T18:59:56.097Z,20.73
2018-04-13T19:02:23.041Z,20.74
2018-04-13T19:04:48.955Z,20.69
2018-04-13T19:07:14.824Z,20.70
2018-04-13T19:09:40.676Z,20.67
2018-04-13T19:12:06.541Z,20.67
2018-04-13T19:14:32.502Z,20.65
2018-04-13T19:16:58.358Z,20.68
2018-04-13T19:19:24.381Z,20.67
2018-04-13T19:21:50.314Z,20.65
2018-04-13T19:24:16.444Z,20.62
2018-04-13T19:26:42.419Z,20.53
2018-04-13T19:29:08.405Z,20.64
2018-04-13T19:31:34.408Z,20.47
2018-04-13T19:34:00.421Z,20.62
2018-04-13T19:36:26.385Z,20.64
2018-04-13T19:38:52.458Z,20.65
2018-04-13T19:41:18.344Z,20.70
2018-04-13T19:43:44.192Z,20.69
2018-04-13T19:46:10.256Z,20.70
2018-04-13T19:48:36.276Z,20.68
2018-04-13T19:51:02.293Z,20.65
2018-04-13T19:53:28.289Z,20.62
2018-04-13T19:55:54.191Z,20.60
2018-04-13T19:58:20.119Z,20.53
2018-04-13T20:00:49.115Z,20.52
2018-04-13T20:03:15.288Z,20.52
2018-04-13T20:05:41.395Z,20.58
2018-04-13T20:08:07.611Z,20.57
2018-04-13T20:10:33.533Z,20.55
2018-04-13T20:12:59.534Z,20.59
2018-04-13T20:15:25.394Z,20.57
2018-04-13T20:17:51.559Z,20.32
2018-04-13T20:20:17.409Z,20.56
2018-04-13T20:22:43.592Z,20.65
2018-04-13T20:25:09.574Z,20.61
2018-04-13T20:27:35.486Z,20.77
2018-04-13T20:30:01.663Z,20.80
2018-04-13T20:32:27.545Z,20.80
2018-04-13T20:34:53.395Z,20.84
2018-04-13T20:37:19.262Z,20.84
2018-04-13T20:39:45.111Z,20.82
2018-04-13T20:42:10.996Z,20.84
2018-04-13T20:44:36.854Z,20.81
2018-04-13T20:47:02.713Z,20.78
2018-04-13T20:49:28.542Z,20.76
2018-04-13T20:51:54.382Z,20.77
2018-04-13T20:54:20.295Z,20.72
2018-04-13T20:56:46.141Z,20.69
2018-04-13T20:59:12.015Z,20.69
2018-04-13T21:01:37.843Z,20.59
2018-04-13T21:04:03.689Z,20.66
2018-04-13T21:06:29.514Z,20.64
2018-04-13T21:08:55.378Z,20.55
2018-04-13T21:11:21.222Z,20.62
2018-04-13T21:13:47.066Z,20.52
2018-04-13T21:16:12.890Z,20.54
2018-04-13T21:18:38.744Z,20.46
2018-04-13T21:21:04.630Z,20.54
2018-04-13T21:23:30.478Z,20.58
2018-04-13T21:25:56.308Z,20.66
2018-04-13T21:28:22.215Z,20.65
2018-04-13T21:30:48.040Z,20.68
2018-04-13T21:33:13.889Z,20.62
2018-04-13T21:35:39.761Z,20.49
2018-04-13T21:38:05.591Z,20.54
2018-04-13T21:40:31.464Z,20.60
2018-04-13T21:42:57.285Z,20.35
2018-04-13T21:45:23.165Z,20.53
2018-04-13T21:47:49.090Z,20.59
2018-04-13T21:50:14.958Z,20.54
2018-04-13T21:52:40.786Z,20.54
2018-04-13T21:55:06.633Z,20.43
2018-04-13T21:57:32.460Z,20.51
2018-04-13T21:59:58.293Z,20.51
2018-04-13T22:02:24.105Z,20.47
2018-04-13T22:04:49.963Z,20.41
2018-04-13T22:07:15.784Z,20.45
2018-04-13T22:09:41.661Z,20.44
2018-04-13T22:12:13.478Z,20.38
2018-04-13T22:14:45.364Z,20.39
2018-04-13T22:17:11.185Z,20.53
2018-04-13T22:19:37.002Z,20.56
2018-04-13T22:22:02.826Z,20.62
2018-04-13T22:24:28.654Z,20.55
2018-04-13T22:26:54.541Z,20.63
2018-04-13T22:29:20.365Z,20.55
2018-04-13T22:31:46.191Z,20.59
2018-04-13T22:34:12.011Z,20.33
2018-04-13T22:36:37.873Z,20.37
2018-04-13T22:39:04.541Z,20.23
2018-04-13T22:41:30.373Z,20.11
2018-04-13T22:43:56.226Z,20.15
2018-04-13T22:46:22.054Z,20.15
2018-04-13T22:48:47.929Z,20.08
2018-04-13T22:51:13.765Z,20.04
2018-04-13T22:53:39.636Z,20.11
2018-04-13T22:56:05.465Z,19.98
2018-04-13T22:58:31.308Z,20.04
2018-04-13T23:00:57.137Z,20.11
2018-04-13T23:03:23.013Z,19.99
2018-04-13T23:05:48.840Z,19.94
2018-04-13T23:08:14.648Z,19.88
2018-04-13T23:10:40.556Z,20.01
2018-04-13T23:13:06.360Z,19.98
2018-04-13T23:15:32.186Z,19.97
2018-04-13T23:17:58.014Z,19.97
2018-04-13T23:20:23.862Z,20.06
2018-04-13T23:22:49.723Z,20.17
2018-04-13T23:25:15.534Z,19.95
2018-04-13T23:27:41.358Z,20.07
2018-04-13T23:30:07.200Z,20.06
2018-04-13T23:32:33.032Z,20.04
2018-04-13T23:34:58.848Z,20.08
2018-04-13T23:37:24.689Z,20.02
2018-04-13T23:39:50.533Z,20.01
2018-04-13T23:42:16.392Z,19.97
2018-04-13T23:44:42.348Z,19.96
2018-04-13T23:47:08.185Z,20.00
2018-04-13T23:49:34.045Z,19.98
2018-04-13T23:51:59.865Z,19.93
2018-04-13T23:54:25.713Z,19.97
2018-04-13T23:56:51.537Z,19.91
2018-04-13T23:59:17.489Z,19.96
